createdAt,value
2018-07-24T00:02:28.012Z,53.1
2018-07-24T00:07:27.589Z,53.2
2018-07-24T00:12:28.237Z,53.0
2018-07-24T00:17:28.212Z,53.0
2018-07-24T00:22:28.261Z,53.2
2018-07-24T00:27:29.396Z,53.2
2018-07-24T00:32:29.381Z,53.1
2018-07-24T00:37:28.540Z,53.3
2018-07-24T00:42:28.192Z,53.1
2018-07-24T00:47:28.066Z,52.9
2018-07-24T00:52:28.256Z,53.1
2018-07-24T00:57:28.422Z,53.1
2018-07-24T01:02:29.133Z,53.1
2018-07-24T01:07:28.076Z,53.0
2018-07-24T01:12:28.333Z,53.0
2018-07-24T01:17:28.455Z,53.0
2018-07-24T01:22:27.610Z,52.8
2018-07-24T01:27:27.220Z,52.9
2018-07-24T01:32:27.217Z,52.8
2018-07-24T01:37:27.401Z,52.9
2018-07-24T01:42:28.204Z,53.0
2018-07-24T01:47:27.892Z,53.0
2018-07-24T01:52:27.562Z,53.1
2018-07-24T01:57:27.575Z,53.1
2018-07-24T02:02:27.957Z,53.1
2018-07-24T02:07:27.651Z,53.0
2018-07-24T02:12:27.611Z,53.0
2018-07-24T02:17:27.974Z,53.1
2018-07-24T02:22:28.708Z,53.1
2018-07-24T02:27:28.528Z,53.0
2018-07-24T02:32:27.397Z,53.1
2018-07-24T02:37:27.911Z,53.1
2018-07-24T02:42:27.280Z,53.0
2018-07-24T02:47:28.333Z,53.1
2018-07-24T02:52:28.280Z,53.0
2018-07-24T02:57:28.055Z,52.9
2018-07-24T03:02:27.953Z,52.8
2018-07-24T03:07:28.350Z,52.8
2018-07-24T03:12:28.519Z,53.0
2018-07-24T03:17:28.867Z,53.1
2018-07-24T03:22:28.448Z,53.0
2018-07-24T03:27:28.279Z,52.8
2018-07-24T03:32:28.147Z,52.8
2018-07-24T03:37:28.890Z,53.0
2018-07-24T03:42:27.887Z,53.0
2018-07-24T03:47:28.579Z,52.9
2018-07-24T03:52:28.673Z,52.8
2018-07-24T03:57:28.470Z,52.7
2018-07-24T04:02:28.514Z,52.7
2018-07-24T04:07:28.074Z,52.8
2018-07-24T04:12:27.926Z,52.7
2018-07-24T04:17:29.527Z,52.7
2018-07-24T04:22:28.170Z,52.7
2018-07-24T04:27:28.993Z,52.6
2018-07-24T04:32:28.917Z,52.5
2018-07-24T04:37:27.673Z,52.5
2018-07-24T04:42:28.527Z,52.4
2018-07-24T04:47:27.944Z,52.2
2018-07-24T04:52:28.198Z,52.2
2018-07-24T04:57:28.656Z,52.1
2018-07-24T05:02:28.224Z,52.0
2018-07-24T05:07:28.573Z,52.0
2018-07-24T05:12:28.539Z,52.1
2018-07-24T05:17:29.056Z,52.0
2018-07-24T05:22:28.605Z,51.8
2018-07-24T05:27:28.161Z,51.8
2018-07-24T05:32:28.444Z,51.7
2018-07-24T05:37:28.157Z,51.6
2018-07-24T05:42:28.432Z,51.7
2018-07-24T05:47:28.752Z,51.8
2018-07-24T05:52:28.276Z,51.7
2018-07-24T05:57:28.921Z,51.7
2018-07-24T06:02:28.703Z,51.7
2018-07-24T06:07:28.261Z,51.9
2018-07-24T06:12:28.747Z,51.8
2018-07-24T06:17:29.070Z,51.8
2018-07-24T06:22:28.658Z,51.9
2018-07-24T06:27:28.776Z,52.0
2018-07-24T06:32:27.801Z,52.1
2018-07-24T06:37:28.356Z,52.2
2018-07-24T06:42:27.794Z,52.4
2018-07-24T06:47:29.061Z,52.4
2018-07-24T06:52:27.967Z,52.5
2018-07-24T06:57:27.891Z,52.5
2018-07-24T07:02:28.618Z,52.6
2018-07-24T07:07:28.838Z,52.6
2018-07-24T07:12:28.411Z,52.8
2018-07-24T07:17:28.928Z,52.9
2018-07-24T07:22:28.507Z,52.9
2018-07-24T07:27:28.615Z,52.9
2018-07-24T07:32:29.353Z,52.8
2018-07-24T07:37:28.915Z,53.2
2018-07-24T07:42:28.204Z,53.2
2018-07-24T07:47:28.300Z,53.2
2018-07-24T07:52:28.822Z,53.7
2018-07-24T07:57:27.788Z,53.7
2018-07-24T08:02:28.283Z,54.1
2018-07-24T08:07:28.538Z,54.1
2018-07-24T08:12:27.870Z,54.0
2018-07-24T08:17:28.939Z,54.4
2018-07-24T08:22:28.708Z,54.3
2018-07-24T08:27:28.607Z,54.3
2018-07-24T08:32:28.427Z,54.4
2018-07-24T08:37:27.516Z,54.4
2018-07-24T08:42:28.584Z,54.8
2018-07-24T08:47:28.060Z,54.7
2018-07-24T08:52:27.824Z,54.7
2018-07-24T08:57:28.475Z,54.8
2018-07-24T09:02:28.850Z,55.0
2018-07-24T09:07:29.544Z,55.0
2018-07-24T09:12:28.001Z,55.4
2018-07-24T09:17:28.314Z,55.3
2018-07-24T09:22:28.024Z,55.2
2018-07-24T09:27:28.195Z,55.2
2018-07-24T09:32:28.110Z,55.7
2018-07-24T09:37:28.144Z,55.7
2018-07-24T09:42:28.029Z,55.5
2018-07-24T09:47:28.573Z,55.4
2018-07-24T09:52:28.703Z,55.4
2018-07-24T09:57:27.973Z,56.1
2018-07-24T10:02:28.322Z,56.2
2018-07-24T10:07:28.040Z,56.0
2018-07-24T10:12:28.706Z,56.1
2018-07-24T10:17:28.628Z,56.0
2018-07-24T10:22:28.086Z,55.8
2018-07-24T10:27:28.308Z,55.7
2018-07-24T10:32:28.223Z,56.2
2018-07-24T10:37:28.297Z,56.2
2018-07-24T10:42:27.798Z,56.2
2018-07-24T10:47:29.146Z,55.9
2018-07-24T10:52:27.486Z,55.8
2018-07-24T10:57:28.052Z,55.7
2018-07-24T11:02:28.443Z,56.0
2018-07-24T11:07:28.378Z,56.0
2018-07-24T11:12:28.343Z,56.4
2018-07-24T11:17:28.973Z,56.5
2018-07-24T11:22:29.201Z,56.3
2018-07-24T11:27:28.289Z,56.3
2018-07-24T11:32:28.510Z,56.1
2018-07-24T11:37:28.551Z,56.1
2018-07-24T11:42:27.865Z,56.3
2018-07-24T11:47:28.255Z,56.3
2018-07-24T11:52:27.859Z,56.4
2018-07-24T11:57:28.186Z,56.2
2018-07-24T12:02:29.296Z,56.0
2018-07-24T12:07:28.994Z,55.8
2018-07-24T12:12:28.930Z,55.9
2018-07-24T12:17:28.730Z,56.3
2018-07-24T12:22:28.408Z,56.3
2018-07-24T12:27:28.220Z,55.8
2018-07-24T12:32:28.042Z,56.1
2018-07-24T12:37:28.303Z,56.4
2018-07-24T12:42:28.246Z,56.2
2018-07-24T12:47:28.396Z,55.7
2018-07-24T12:52:28.253Z,55.8
2018-07-24T12:57:28.615Z,55.7
2018-07-24T13:02:28.721Z,55.2
2018-07-24T13:07:28.115Z,55.2
2018-07-24T13:12:28.263Z,55.5
2018-07-24T13:17:30.059Z,55.5
2018-07-24T13:22:28.068Z,55.5
2018-07-24T13:27:28.971Z,55.4
2018-07-24T13:32:27.936Z,54.8
2018-07-24T13:37:27.888Z,54.9
2018-07-24T13:42:28.886Z,54.9
2018-07-24T13:47:28.273Z,54.7
2018-07-24T13:52:28.202Z,54.7
2018-07-24T13:57:28.494Z,54.7
2018-07-24T14:02:28.035Z,55.0
2018-07-24T14:07:27.968Z,55.0
2018-07-24T14:12:28.757Z,55.0
2018-07-24T14:17:28.273Z,54.5
2018-07-24T14:22:29.145Z,54.6
2018-07-24T14:27:27.956Z,54.1
2018-07-24T14:32:28.843Z,54.1
2018-07-24T14:37:27.934Z,53.1
2018-07-24T14:42:27.546Z,52.0
2018-07-24T14:47:29.135Z,52.0
2018-07-24T14:52:27.823Z,48.6
2018-07-24T14:57:28.374Z,48.5
2018-07-24T15:02:28.353Z,45.2
2018-07-24T15:07:28.315Z,45.2
2018-07-24T15:12:28.159Z,43.7
2018-07-24T15:17:28.670Z,43.7
2018-07-24T15:22:28.811Z,42.5
2018-07-24T15:27:28.058Z,42.0
2018-07-24T15:32:28.666Z,40.9
2018-07-24T15:37:27.890Z,40.0
2018-07-24T15:42:28.450Z,39.9
2018-07-24T15:47:28.730Z,40.2
2018-07-24T15:52:27.766Z,39.5
2018-07-24T15:57:28.319Z,39.4
2018-07-24T16:02:28.042Z,39.7
2018-07-24T16:07:27.823Z,39.3
2018-07-24T16:12:27.967Z,39.7
2018-07-24T16:17:29.113Z,39.7
2018-07-24T16:22:27.754Z,39.5
2018-07-24T16:27:28.301Z,39.5
2018-07-24T16:32:28.545Z,39.8
2018-07-24T16:37:28.866Z,39.9
2018-07-24T16:42:28.299Z,40.1
2018-07-24T16:47:28.179Z,40.2
2018-07-24T16:52:27.871Z,40.2
2018-07-24T16:57:28.672Z,40.5
2018-07-24T17:02:28.655Z,40.1
2018-07-24T17:07:28.903Z,40.6
2018-07-24T17:12:29.565Z,41.1
2018-07-24T17:17:29.549Z,41.0
2018-07-24T17:22:28.130Z,41.8
2018-07-24T17:27:28.410Z,41.7
2018-07-24T17:32:27.888Z,41.5
2018-07-24T17:37:28.208Z,42.2
2018-07-24T17:42:28.422Z,42.5
2018-07-24T17:47:28.574Z,43.1
2018-07-24T17:52:28.387Z,43.4
2018-07-24T17:57:28.251Z,43.4
2018-07-24T18:02:29.511Z,43.6
2018-07-24T18:07:28.722Z,45.4
2018-07-24T18:12:28.449Z,45.4
2018-07-24T18:17:28.779Z,48.6
2018-07-24T18:22:28.341Z,49.9
2018-07-24T18:27:28.036Z,51.1
2018-07-24T18:32:28.826Z,51.2
2018-07-24T18:37:28.262Z,51.2
2018-07-24T18:42:27.945Z,51.2
2018-07-24T18:47:29.276Z,51.5
2018-07-24T18:52:28.516Z,51.4
2018-07-24T18:57:28.488Z,51.3
2018-07-24T19:02:28.623Z,51.3
2018-07-24T19:07:29.094Z,51.3
2018-07-24T19:12:28.175Z,51.4
2018-07-24T19:17:27.995Z,51.4
2018-07-24T19:22:27.564Z,51.1
2018-07-24T19:27:27.516Z,51.2
2018-07-24T19:32:28.752Z,50.8
2018-07-24T19:37:28.650Z,50.8
2018-07-24T19:42:27.906Z,51.0
2018-07-24T19:47:28.124Z,50.6
2018-07-24T19:52:28.800Z,50.7
2018-07-24T19:57:27.521Z,50.2
2018-07-24T20:02:28.281Z,50.2
2018-07-24T20:07:27.996Z,50.4
2018-07-24T20:12:28.136Z,49.8
2018-07-24T20:17:28.139Z,49.7
2018-07-24T20:22:28.486Z,49.8
2018-07-24T20:27:27.808Z,49.3
2018-07-24T20:32:28.113Z,49.3
2018-07-24T20:37:27.955Z,49.4
2018-07-24T20:42:28.195Z,49.4
2018-07-24T20:47:28.487Z,49.6
2018-07-24T20:52:27.263Z,49.4
2018-07-24T20:57:27.993Z,49.4
2018-07-24T21:02:27.964Z,49.5
2018-07-24T21:07:27.850Z,49.4
2018-07-24T21:12:28.687Z,49.4
2018-07-24T21:17:27.806Z,49.4
2018-07-24T21:22:28.131Z,49.3
2018-07-24T21:27:27.920Z,49.4
2018-07-24T21:32:27.332Z,49.4
2018-07-24T21:37:27.899Z,49.5
2018-07-24T21:42:28.052Z,49.4
2018-07-24T21:47:27.559Z,49.5
2018-07-24T21:52:28.195Z,49.5
2018-07-24T21:57:28.431Z,49.5
2018-07-24T22:02:27.975Z,49.9
2018-07-24T22:07:28.468Z,49.8
2018-07-24T22:12:27.821Z,49.7
2018-07-24T22:23:05.682Z,49.4
2018-07-24T22:28:03.840Z,49.6
2018-07-24T22:33:05.324Z,49.7
2018-07-24T22:38:05.980Z,49.7
2018-07-24T22:43:03.960Z,49.6
2018-07-24T22:48:04.552Z,49.6
2018-07-24T22:53:04.825Z,49.6
2018-07-24T22:58:04.523Z,49.6
2018-07-24T23:03:04.690Z,49.6
2018-07-24T23:08:05.394Z,49.6
2018-07-24T23:12:27.907Z,49.6
2018-07-24T23:17:28.205Z,49.6
2018-07-24T23:22:27.606Z,49.7
2018-07-24T23:27:27.888Z,49.6
2018-07-24T23:32:27.168Z,49.7
2018-07-24T23:37:28.367Z,49.7
2018-07-24T23:42:27.066Z,49.6
2018-07-24T23:47:27.634Z,49.4
2018-07-24T23:52:27.578Z,49.4
2018-07-24T23:57:27.424Z,49.6
